createdAt,value
2023-05-20T00:01:40.588Z,1.65
2023-05-20T00:06:42.495Z,1.30
2023-05-20T00:11:45.078Z,1.60
2023-05-20T00:16:46.673Z,1.50
2023-05-20T00:21:48.145Z,1.38
2023-05-20T00:26:49.595Z,1.60
2023-05-20T00:31:51.363Z,1.85
2023-05-20T00:36:53.376Z,1.90
2023-05-20T00:41:55.109Z,1.33
2023-05-20T00:46:56.839Z,1.85
2023-05-20T00:51:58.860Z,1.80
2023-05-20T00:57:03.002Z,2.10
2023-05-20T01:07:07.484Z,2.25
2023-05-20T01:12:20.806Z,1.80
2023-05-20T01:17:27.865Z,1.92
2023-05-20T01:22:29.932Z,2.00
2023-05-20T01:27:31.567Z,1.63
2023-05-20T01:32:37.349Z,1.67
2023-05-20T01:37:41.334Z,1.73
2023-05-20T01:42:44.820Z,2.35
2023-05-20T01:47:46.772Z,1.83
2023-05-20T01:52:48.455Z,1.92
2023-05-20T01:57:50.293Z,2.20
2023-05-20T02:02:51.963Z,2.28
2023-05-20T02:07:53.594Z,2.03
2023-05-20T02:12:55.244Z,2.22
2023-05-20T02:17:58.032Z,2.28
2023-05-20T02:22:59.904Z,2.00
2023-05-20T02:28:01.718Z,2.15
2023-05-20T02:33:03.463Z,2.17
2023-05-20T02:38:04.896Z,2.15
2023-05-20T02:43:06.366Z,2.20
2023-05-20T02:48:07.874Z,2.15
2023-05-20T02:53:09.613Z,2.50
2023-05-20T02:58:13.385Z,2.45
2023-05-20T03:03:14.889Z,2.15
2023-05-20T03:08:16.261Z,1.70
2023-05-20T03:13:17.775Z,2.05
2023-05-20T03:18:19.250Z,2.50
2023-05-20T03:23:21.294Z,2.53
2023-05-20T03:28:22.733Z,3.00
2023-05-20T03:33:26.426Z,2.55
2023-05-20T03:38:27.992Z,2.75
2023-05-20T03:43:30.388Z,2.55
2023-05-20T03:48:32.063Z,2.47
2023-05-20T03:53:33.859Z,2.35
2023-05-20T03:58:35.347Z,2.60
2023-05-20T04:03:36.897Z,2.20
2023-05-20T04:08:38.545Z,3.17
2023-05-20T04:13:39.952Z,2.60
2023-05-20T04:18:41.949Z,2.88
2023-05-20T04:23:43.396Z,3.17
2023-05-20T04:28:45.084Z,2.90
2023-05-20T04:33:46.905Z,2.60
2023-05-20T04:38:49.602Z,3.10
2023-05-20T04:43:51.089Z,3.00
2023-05-20T04:48:53.848Z,2.83
2023-05-20T04:53:55.322Z,3.13
2023-05-20T04:58:56.779Z,2.70
2023-05-20T05:03:58.467Z,2.78
2023-05-20T05:09:00.052Z,3.03
2023-05-20T05:14:01.726Z,3.50
2023-05-20T05:19:03.124Z,2.72
2023-05-20T05:24:04.764Z,3.20
2023-05-20T05:29:06.380Z,3.50
2023-05-20T05:34:07.984Z,3.55
2023-05-20T05:39:09.563Z,3.80
2023-05-20T05:44:10.951Z,3.70
2023-05-20T05:49:12.593Z,3.92
2023-05-20T05:54:13.990Z,3.95
2023-05-20T05:59:16.272Z,4.07
2023-05-20T06:04:18.181Z,3.97
2023-05-20T06:09:19.587Z,3.85
2023-05-20T06:14:21.405Z,4.72
2023-05-20T06:19:22.910Z,3.88
2023-05-20T06:24:24.815Z,4.53
2023-05-20T06:29:26.548Z,4.38
2023-05-20T06:34:28.104Z,4.90
2023-05-20T06:39:29.705Z,4.68
2023-05-20T06:44:31.594Z,4.53
2023-05-20T06:49:33.168Z,4.95
2023-05-20T06:54:39.864Z,4.30
2023-05-20T06:59:42.077Z,5.75
2023-05-20T07:04:43.593Z,4.70
2023-05-20T07:09:45.265Z,5.53
2023-05-20T07:14:47.805Z,5.90
2023-05-20T07:19:49.486Z,5.90
2023-05-20T07:24:50.952Z,5.50
2023-05-20T07:29:52.458Z,5.60
2023-05-20T07:34:53.843Z,5.43
2023-05-20T07:39:55.462Z,6.20
2023-05-20T07:44:57.007Z,5.68
2023-05-20T07:49:58.726Z,6.55
2023-05-20T07:55:00.183Z,5.85
2023-05-20T08:00:01.666Z,6.32
2023-05-20T08:05:03.274Z,6.07
2023-05-20T08:10:05.735Z,5.57
2023-05-20T08:15:08.150Z,5.55
2023-05-20T08:20:10.835Z,6.40
2023-05-20T08:25:12.291Z,7.10
2023-05-20T08:30:13.829Z,6.45
2023-05-20T08:35:15.464Z,6.47
2023-05-20T08:40:17.001Z,5.95
2023-05-20T08:45:21.115Z,6.47
2023-05-20T08:50:22.740Z,5.63
2023-05-20T08:55:37.674Z,5.07
2023-05-20T09:00:39.431Z,5.97
2023-05-20T09:05:43.377Z,5.97
2023-05-20T09:10:44.902Z,6.47
2023-05-20T09:15:46.290Z,6.30
2023-05-20T09:20:50.896Z,6.60
2023-05-20T09:25:53.236Z,5.68
2023-05-20T09:30:59.068Z,9.18
2023-05-20T09:36:07.411Z,6.20
2023-05-20T09:41:13.688Z,6.53
2023-05-20T09:46:16.785Z,6.18
2023-05-20T09:51:19.102Z,6.10
2023-05-20T09:56:22.049Z,7.15
2023-05-20T10:01:23.834Z,6.38
2023-05-20T10:06:59.838Z,6.47
2023-05-20T10:12:39.361Z,7.20
2023-05-20T10:17:46.869Z,6.28
2023-05-20T10:22:58.136Z,6.47
2023-05-20T10:28:08.738Z,6.05
2023-05-20T10:33:18.227Z,6.80
2023-05-20T10:38:21.547Z,6.05
2023-05-20T10:43:28.476Z,5.65
2023-05-20T10:48:34.196Z,6.78
2023-05-20T10:53:42.887Z,5.88
2023-05-20T10:58:44.716Z,5.85
2023-05-20T11:03:49.488Z,5.85
2023-05-20T11:08:51.329Z,6.20
2023-05-20T11:13:53.201Z,5.47
2023-05-20T11:18:54.761Z,5.63
2023-05-20T11:23:56.784Z,6.43
2023-05-20T11:28:59.395Z,5.68
2023-05-20T11:34:02.498Z,5.38
2023-05-20T11:39:05.526Z,5.53
2023-05-20T11:44:11.874Z,5.70
2023-05-20T11:49:14.084Z,5.55
2023-05-20T11:54:15.516Z,5.43
2023-05-20T11:59:16.981Z,5.45
2023-05-20T12:04:18.903Z,5.88
2023-05-20T12:09:20.616Z,5.33
2023-05-20T12:14:22.186Z,5.75
2023-05-20T12:19:23.721Z,5.72
2023-05-20T12:24:25.332Z,5.53
2023-05-20T12:29:27.028Z,5.78
2023-05-20T12:34:28.580Z,6.68
2023-05-20T12:39:29.920Z,6.35
2023-05-20T12:44:31.452Z,6.80
2023-05-20T12:49:32.899Z,7.07
2023-05-20T12:54:34.738Z,7.13
2023-05-20T12:59:36.265Z,7.30
2023-05-20T13:04:38.011Z,6.40
2023-05-20T13:09:39.497Z,6.55
2023-05-20T13:14:41.630Z,5.95
2023-05-20T13:19:44.331Z,7.28
2023-05-20T13:24:45.748Z,7.05
2023-05-20T13:29:47.503Z,7.93
2023-05-20T13:34:49.110Z,6.88
2023-05-20T13:39:51.490Z,6.22
2023-05-20T13:44:52.980Z,6.57
2023-05-20T13:49:54.359Z,7.07
2023-05-20T13:54:56.096Z,6.68
2023-05-20T13:59:57.465Z,7.78
2023-05-20T14:04:58.887Z,7.10
2023-05-20T14:10:00.423Z,6.82
2023-05-20T14:15:01.826Z,6.85
2023-05-20T14:20:03.794Z,7.00
2023-05-20T14:25:06.232Z,7.88
2023-05-20T14:30:08.531Z,7.20
2023-05-20T14:35:10.499Z,7.13
2023-05-20T14:40:12.320Z,7.45
2023-05-20T14:45:13.730Z,7.45
2023-05-20T14:50:15.642Z,7.03
2023-05-20T14:55:17.358Z,7.50
2023-05-20T15:00:19.042Z,6.88
2023-05-20T15:05:20.786Z,6.65
2023-05-20T15:10:22.279Z,7.13
2023-05-20T15:15:23.966Z,6.05
2023-05-20T15:20:25.650Z,6.65
2023-05-20T15:25:27.172Z,7.53
2023-05-20T15:30:28.608Z,7.60
2023-05-20T15:35:30.279Z,8.07
2023-05-20T15:40:32.183Z,7.60
2023-05-20T15:45:33.985Z,6.68
2023-05-20T15:50:37.137Z,6.63
2023-05-20T16:00:40.463Z,6.82
2023-05-20T16:05:42.489Z,7.28
2023-05-20T16:10:43.935Z,7.93
2023-05-20T16:15:45.785Z,7.32
2023-05-20T16:20:47.458Z,7.70
2023-05-20T16:25:48.922Z,7.70
2023-05-20T16:30:50.418Z,6.90
2023-05-20T16:35:52.556Z,7.22
2023-05-20T16:40:54.298Z,7.50
2023-05-20T16:45:56.315Z,7.80
2023-05-20T16:50:57.992Z,7.32
2023-05-20T16:55:59.424Z,7.70
2023-05-20T17:01:01.925Z,7.38
2023-05-20T17:06:03.708Z,8.40
2023-05-20T17:11:05.503Z,8.48
2023-05-20T17:16:09.735Z,8.25
2023-05-20T17:21:13.163Z,8.75
2023-05-20T17:26:16.859Z,8.68
2023-05-20T17:31:18.378Z,9.10
2023-05-20T17:36:22.683Z,9.98
2023-05-20T17:41:24.161Z,8.93
2023-05-20T17:46:25.676Z,9.15
2023-05-20T17:51:27.507Z,8.77
2023-05-20T17:56:29.033Z,9.88
2023-05-20T18:01:31.033Z,10.02
2023-05-20T18:06:34.785Z,9.52
2023-05-20T18:11:36.536Z,10.85
2023-05-20T18:16:38.430Z,10.35
2023-05-20T18:21:40.176Z,11.75
2023-05-20T18:26:42.035Z,10.10
2023-05-20T18:31:43.850Z,10.80
2023-05-20T18:36:45.395Z,10.65
2023-05-20T18:41:47.743Z,11.00
2023-05-20T18:46:49.264Z,10.13
2023-05-20T18:51:51.022Z,10.50
2023-05-20T18:56:52.620Z,11.68
2023-05-20T19:01:54.109Z,11.48
2023-05-20T19:06:55.810Z,11.85
2023-05-20T19:11:59.320Z,12.13
2023-05-20T19:17:01.167Z,12.27
2023-05-20T19:22:02.972Z,11.73
2023-05-20T19:27:05.116Z,11.43
2023-05-20T19:32:06.834Z,11.65
2023-05-20T19:37:08.255Z,12.38
2023-05-20T19:42:09.658Z,12.27
2023-05-20T19:47:11.175Z,12.30
2023-05-20T19:52:12.939Z,13.15
2023-05-20T19:57:14.946Z,12.38
2023-05-20T20:02:16.640Z,12.10
2023-05-20T20:07:18.194Z,11.23
2023-05-20T20:12:19.674Z,11.90
2023-05-20T20:17:23.262Z,12.45
2023-05-20T20:22:24.998Z,12.63
2023-05-20T20:27:26.427Z,13.85
2023-05-20T20:32:28.380Z,11.35
2023-05-20T20:37:30.136Z,12.82
2023-05-20T20:42:32.408Z,11.60
2023-05-20T20:47:34.268Z,12.50
2023-05-20T20:52:36.366Z,12.35
2023-05-20T20:57:38.065Z,11.27
2023-05-20T21:02:39.486Z,13.25
2023-05-20T21:07:44.714Z,12.00
2023-05-20T21:12:46.402Z,12.05
2023-05-20T21:17:47.877Z,11.98
2023-05-20T21:22:49.408Z,12.43
2023-05-20T21:27:51.090Z,12.57
2023-05-20T21:32:52.786Z,12.57
2023-05-20T21:37:54.319Z,12.60
2023-05-20T21:42:55.874Z,11.07
2023-05-20T21:47:57.336Z,12.48
2023-05-20T21:52:58.882Z,11.10
2023-05-20T21:58:00.340Z,11.75
2023-05-20T22:03:01.908Z,11.63
2023-05-20T22:08:03.706Z,11.35
2023-05-20T22:13:05.515Z,11.48
2023-05-20T22:18:07.908Z,11.75
2023-05-20T22:23:09.429Z,11.73
2023-05-20T22:28:11.074Z,12.48
2023-05-20T22:33:13.230Z,12.27
2023-05-20T22:38:14.735Z,11.65
2023-05-20T22:43:16.545Z,11.52
2023-05-20T22:48:19.284Z,12.18
2023-05-20T22:53:20.739Z,10.82
2023-05-20T22:58:22.514Z,11.15
2023-05-20T23:03:24.075Z,11.35
2023-05-20T23:08:26.083Z,11.00
2023-05-20T23:13:28.119Z,11.65
2023-05-20T23:18:29.660Z,11.15
2023-05-20T23:23:32.394Z,11.20
2023-05-20T23:28:34.920Z,11.15
2023-05-20T23:33:36.772Z,10.82
2023-05-20T23:38:40.634Z,11.10
2023-05-20T23:43:42.784Z,11.77
2023-05-20T23:48:45.206Z,11.15
2023-05-20T23:53:46.947Z,10.60
2023-05-20T23:58:48.296Z,11.15
